sensor_id;sensor_type;location;lat;lon;timestamp;P1;durP1;ratioP1;P2;durP2;ratioP2
2602;SDS011;1311;47.966;7.958;2023-05-07T00:01:31;3.33;;;3.03;;
2602;SDS011;1311;47.966;7.958;2023-05-07T00:03:58;6.17;;;3.87;;
2602;SDS011;1311;47.966;7.958;2023-05-07T00:06:25;3.80;;;3.50;;
2602;SDS011;1311;47.966;7.958;2023-05-07T00:08:53;4.10;;;3.50;;
2602;SDS011;1311;47.966;7.958;2023-05-07T00:11:20;4.57;;;4.00;;
2602;SDS011;1311;47.966;7.958;2023-05-07T00:13:47;4.10;;;3.70;;
2602;SDS011;1311;47.966;7.958;2023-05-07T00:16:14;4.60;;;4.20;;
2602;SDS011;1311;47.966;7.958;2023-05-07T00:18:43;3.70;;;3.40;;
2602;SDS011;1311;47.966;7.958;2023-05-07T00:21:11;5.13;;;4.40;;
2602;SDS011;1311;47.966;7.958;2023-05-07T00:23:38;7.50;;;4.53;;
2602;SDS011;1311;47.966;7.958;2023-05-07T00:26:04;4.60;;;4.20;;
2602;SDS011;1311;47.966;7.958;2023-05-07T00:28:31;5.40;;;4.00;;
2602;SDS011;1311;47.966;7.958;2023-05-07T00:30:58;4.67;;;4.10;;
2602;SDS011;1311;47.966;7.958;2023-05-07T00:33:25;4.70;;;4.30;;
2602;SDS011;1311;47.966;7.958;2023-05-07T00:35:53;6.77;;;4.37;;
2602;SDS011;1311;47.966;7.958;2023-05-07T00:38:20;4.30;;;3.90;;
2602;SDS011;1311;47.966;7.958;2023-05-07T00:40:47;3.50;;;3.20;;
2602;SDS011;1311;47.966;7.958;2023-05-07T00:43:13;5.40;;;3.63;;
2602;SDS011;1311;47.966;7.958;2023-05-07T00:45:41;3.30;;;3.10;;
2602;SDS011;1311;47.966;7.958;2023-05-07T00:48:07;4.90;;;3.50;;
2602;SDS011;1311;47.966;7.958;2023-05-07T00:50:34;3.50;;;3.20;;
2602;SDS011;1311;47.966;7.958;2023-05-07T00:53:03;4.40;;;3.03;;
2602;SDS011;1311;47.966;7.958;2023-05-07T00:55:30;3.50;;;3.20;;
2602;SDS011;1311;47.966;7.958;2023-05-07T00:57:57;6.73;;;3.20;;
2602;SDS011;1311;47.966;7.958;2023-05-07T01:00:24;5.70;;;3.40;;
2602;SDS011;1311;47.966;7.958;2023-05-07T01:02:51;3.60;;;3.30;;
2602;SDS011;1311;47.966;7.958;2023-05-07T01:05:19;4.57;;;3.80;;
2602;SDS011;1311;47.966;7.958;2023-05-07T01:07:48;4.90;;;3.60;;
2602;SDS011;1311;47.966;7.958;2023-05-07T01:10:17;4.07;;;3.67;;
2602;SDS011;1311;47.966;7.958;2023-05-07T01:12:44;3.70;;;3.40;;
2602;SDS011;1311;47.966;7.958;2023-05-07T01:15:12;4.20;;;3.40;;
2602;SDS011;1311;47.966;7.958;2023-05-07T01:17:40;6.07;;;3.33;;
2602;SDS011;1311;47.966;7.958;2023-05-07T01:20:08;5.03;;;3.97;;
2602;SDS011;1311;47.966;7.958;2023-05-07T01:22:37;3.50;;;3.03;;
2602;SDS011;1311;47.966;7.958;2023-05-07T01:25:05;4.47;;;3.60;;
2602;SDS011;1311;47.966;7.958;2023-05-07T01:27:33;4.50;;;3.80;;
2602;SDS011;1311;47.966;7.958;2023-05-07T01:30:00;5.20;;;3.80;;
2602;SDS011;1311;47.966;7.958;2023-05-07T01:32:28;3.90;;;3.60;;
2602;SDS011;1311;47.966;7.958;2023-05-07T01:34:58;4.20;;;3.80;;
2602;SDS011;1311;47.966;7.958;2023-05-07T01:37:27;3.90;;;3.47;;
2602;SDS011;1311;47.966;7.958;2023-05-07T01:39:56;3.80;;;3.50;;
2602;SDS011;1311;47.966;7.958;2023-05-07T01:42:23;4.77;;;3.80;;
2602;SDS011;1311;47.966;7.958;2023-05-07T01:44:50;5.17;;;3.43;;
2602;SDS011;1311;47.966;7.958;2023-05-07T01:47:17;3.67;;;2.80;;
2602;SDS011;1311;47.966;7.958;2023-05-07T01:49:44;4.20;;;2.97;;
2602;SDS011;1311;47.966;7.958;2023-05-07T01:52:12;3.57;;;3.27;;
2602;SDS011;1311;47.966;7.958;2023-05-07T01:54:39;5.70;;;3.47;;
2602;SDS011;1311;47.966;7.958;2023-05-07T01:57:07;4.30;;;3.50;;
2602;SDS011;1311;47.966;7.958;2023-05-07T01:59:34;2.80;;;2.50;;
2602;SDS011;1311;47.966;7.958;2023-05-07T02:02:01;3.73;;;3.30;;
2602;SDS011;1311;47.966;7.958;2023-05-07T02:04:27;8.50;;;3.70;;
2602;SDS011;1311;47.966;7.958;2023-05-07T02:06:54;4.13;;;3.73;;
2602;SDS011;1311;47.966;7.958;2023-05-07T02:09:21;4.63;;;3.50;;
2602;SDS011;1311;47.966;7.958;2023-05-07T02:11:48;2.83;;;2.63;;
2602;SDS011;1311;47.966;7.958;2023-05-07T02:14:16;3.10;;;2.90;;
2602;SDS011;1311;47.966;7.958;2023-05-07T02:16:45;3.50;;;3.20;;
2602;SDS011;1311;47.966;7.958;2023-05-07T02:19:12;4.80;;;3.73;;
2602;SDS011;1311;47.966;7.958;2023-05-07T02:21:38;4.07;;;3.17;;
2602;SDS011;1311;47.966;7.958;2023-05-07T02:24:05;4.33;;;3.63;;
2602;SDS011;1311;47.966;7.958;2023-05-07T02:26:32;5.50;;;3.40;;
2602;SDS011;1311;47.966;7.958;2023-05-07T02:28:59;3.30;;;3.00;;
2602;SDS011;1311;47.966;7.958;2023-05-07T02:31:27;3.57;;;3.20;;
2602;SDS011;1311;47.966;7.958;2023-05-07T02:33:54;4.00;;;3.40;;
2602;SDS011;1311;47.966;7.958;2023-05-07T02:36:20;4.20;;;3.80;;
2602;SDS011;1311;47.966;7.958;2023-05-07T02:38:47;4.07;;;3.73;;
2602;SDS011;1311;47.966;7.958;2023-05-07T02:41:14;4.10;;;3.47;;
2602;SDS011;1311;47.966;7.958;2023-05-07T02:43:40;4.70;;;3.67;;
2602;SDS011;1311;47.966;7.958;2023-05-07T02:46:07;4.37;;;3.30;;
2602;SDS011;1311;47.966;7.958;2023-05-07T02:48:36;4.90;;;3.70;;
2602;SDS011;1311;47.966;7.958;2023-05-07T02:51:03;3.40;;;3.10;;
2602;SDS011;1311;47.966;7.958;2023-05-07T02:53:31;5.60;;;3.73;;
2602;SDS011;1311;47.966;7.958;2023-05-07T02:55:59;4.10;;;3.23;;
2602;SDS011;1311;47.966;7.958;2023-05-07T02:58:26;3.17;;;2.90;;
2602;SDS011;1311;47.966;7.958;2023-05-07T03:00:53;6.40;;;3.47;;
2602;SDS011;1311;47.966;7.958;2023-05-07T03:03:20;5.77;;;3.23;;
2602;SDS011;1311;47.966;7.958;2023-05-07T03:05:48;5.87;;;3.50;;
2602;SDS011;1311;47.966;7.958;2023-05-07T03:08:15;3.10;;;2.90;;
2602;SDS011;1311;47.966;7.958;2023-05-07T03:10:42;4.47;;;3.23;;
2602;SDS011;1311;47.966;7.958;2023-05-07T03:13:09;2.97;;;2.73;;
2602;SDS011;1311;47.966;7.958;2023-05-07T03:15:35;5.63;;;3.40;;
2602;SDS011;1311;47.966;7.958;2023-05-07T03:18:02;3.33;;;2.90;;
2602;SDS011;1311;47.966;7.958;2023-05-07T03:20:29;3.57;;;3.30;;
2602;SDS011;1311;47.966;7.958;2023-05-07T03:22:57;4.70;;;3.50;;
2602;SDS011;1311;47.966;7.958;2023-05-07T03:25:24;4.37;;;3.97;;
2602;SDS011;1311;47.966;7.958;2023-05-07T03:27:51;3.33;;;2.97;;
2602;SDS011;1311;47.966;7.958;2023-05-07T03:30:17;3.80;;;3.40;;
2602;SDS011;1311;47.966;7.958;2023-05-07T03:32:45;3.70;;;3.40;;
2602;SDS011;1311;47.966;7.958;2023-05-07T03:35:11;3.53;;;3.23;;
2602;SDS011;1311;47.966;7.958;2023-05-07T03:37:38;4.20;;;3.90;;
2602;SDS011;1311;47.966;7.958;2023-05-07T03:40:07;5.23;;;4.07;;
2602;SDS011;1311;47.966;7.958;2023-05-07T03:42:35;4.40;;;3.90;;
2602;SDS011;1311;47.966;7.958;2023-05-07T03:45:02;3.77;;;3.33;;
2602;SDS011;1311;47.966;7.958;2023-05-07T03:47:29;3.93;;;3.43;;
2602;SDS011;1311;47.966;7.958;2023-05-07T03:49:56;4.63;;;4.20;;
2602;SDS011;1311;47.966;7.958;2023-05-07T03:52:23;4.23;;;3.83;;
2602;SDS011;1311;47.966;7.958;2023-05-07T03:54:51;4.80;;;4.30;;
2602;SDS011;1311;47.966;7.958;2023-05-07T03:57:19;4.07;;;3.60;;
2602;SDS011;1311;47.966;7.958;2023-05-07T03:59:46;3.83;;;3.53;;
2602;SDS011;1311;47.966;7.958;2023-05-07T04:02:13;4.60;;;4.20;;
2602;SDS011;1311;47.966;7.958;2023-05-07T04:04:40;4.53;;;3.70;;
2602;SDS011;1311;47.966;7.958;2023-05-07T04:07:06;4.90;;;4.07;;
2602;SDS011;1311;47.966;7.958;2023-05-07T04:09:33;4.40;;;3.60;;
2602;SDS011;1311;47.966;7.958;2023-05-07T04:12:00;3.57;;;3.27;;
2602;SDS011;1311;47.966;7.958;2023-05-07T04:14:28;4.83;;;3.70;;
2602;SDS011;1311;47.966;7.958;2023-05-07T04:16:57;3.53;;;3.23;;
2602;SDS011;1311;47.966;7.958;2023-05-07T04:19:24;4.07;;;3.77;;
2602;SDS011;1311;47.966;7.958;2023-05-07T04:21:50;3.80;;;3.50;;
2602;SDS011;1311;47.966;7.958;2023-05-07T04:24:17;5.03;;;4.20;;
2602;SDS011;1311;47.966;7.958;2023-05-07T04:26:44;4.00;;;3.50;;
2602;SDS011;1311;47.966;7.958;2023-05-07T04:29:11;4.03;;;3.73;;
2602;SDS011;1311;47.966;7.958;2023-05-07T04:31:39;3.83;;;3.53;;
2602;SDS011;1311;47.966;7.958;2023-05-07T04:34:06;4.23;;;3.67;;
2602;SDS011;1311;47.966;7.958;2023-05-07T04:36:34;4.17;;;3.30;;
2602;SDS011;1311;47.966;7.958;2023-05-07T04:39:02;3.83;;;3.50;;
2602;SDS011;1311;47.966;7.958;2023-05-07T04:41:29;4.13;;;3.43;;
2602;SDS011;1311;47.966;7.958;2023-05-07T04:43:56;3.90;;;3.60;;
2602;SDS011;1311;47.966;7.958;2023-05-07T04:46:23;3.90;;;3.60;;
2602;SDS011;1311;47.966;7.958;2023-05-07T04:48:52;4.07;;;3.77;;
2602;SDS011;1311;47.966;7.958;2023-05-07T04:51:18;3.60;;;3.30;;
2602;SDS011;1311;47.966;7.958;2023-05-07T04:53:45;6.50;;;4.07;;
2602;SDS011;1311;47.966;7.958;2023-05-07T04:56:12;5.30;;;3.80;;
2602;SDS011;1311;47.966;7.958;2023-05-07T04:58:39;5.60;;;3.70;;
2602;SDS011;1311;47.966;7.958;2023-05-07T05:01:05;3.80;;;3.50;;
2602;SDS011;1311;47.966;7.958;2023-05-07T05:03:32;3.27;;;2.97;;
2602;SDS011;1311;47.966;7.958;2023-05-07T05:06:00;4.30;;;3.90;;
2602;SDS011;1311;47.966;7.958;2023-05-07T05:08:27;5.13;;;3.63;;
2602;SDS011;1311;47.966;7.958;2023-05-07T05:10:55;4.30;;;3.43;;
2602;SDS011;1311;47.966;7.958;2023-05-07T05:13:22;4.20;;;3.37;;
2602;SDS011;1311;47.966;7.958;2023-05-07T05:15:49;3.47;;;3.17;;
2602;SDS011;1311;47.966;7.958;2023-05-07T05:18:16;3.70;;;3.30;;
2602;SDS011;1311;47.966;7.958;2023-05-07T05:20:42;6.33;;;3.90;;
2602;SDS011;1311;47.966;7.958;2023-05-07T05:23:10;3.53;;;3.30;;
2602;SDS011;1311;47.966;7.958;2023-05-07T05:25:37;4.03;;;3.63;;
2602;SDS011;1311;47.966;7.958;2023-05-07T05:28:05;3.60;;;3.20;;
2602;SDS011;1311;47.966;7.958;2023-05-07T05:30:32;3.47;;;3.17;;
2602;SDS011;1311;47.966;7.958;2023-05-07T05:32:58;4.10;;;3.43;;
2602;SDS011;1311;47.966;7.958;2023-05-07T05:35:25;3.83;;;3.53;;
2602;SDS011;1311;47.966;7.958;2023-05-07T05:37:52;3.73;;;3.43;;
2602;SDS011;1311;47.966;7.958;2023-05-07T05:40:20;4.03;;;3.73;;
2602;SDS011;1311;47.966;7.958;2023-05-07T05:42:47;3.83;;;3.23;;
2602;SDS011;1311;47.966;7.958;2023-05-07T05:45:14;3.37;;;3.00;;
2602;SDS011;1311;47.966;7.958;2023-05-07T05:47:41;3.50;;;3.30;;
2602;SDS011;1311;47.966;7.958;2023-05-07T05:50:07;3.57;;;3.27;;
2602;SDS011;1311;47.966;7.958;2023-05-07T05:52:34;6.27;;;3.83;;
2602;SDS011;1311;47.966;7.958;2023-05-07T05:55:01;3.60;;;3.30;;
2602;SDS011;1311;47.966;7.958;2023-05-07T05:57:29;4.10;;;3.67;;
2602;SDS011;1311;47.966;7.958;2023-05-07T05:59:57;3.37;;;3.17;;
2602;SDS011;1311;47.966;7.958;2023-05-07T06:02:23;7.33;;;3.73;;
2602;SDS011;1311;47.966;7.958;2023-05-07T06:04:50;3.27;;;2.97;;
2602;SDS011;1311;47.966;7.958;2023-05-07T06:07:17;3.50;;;3.20;;
2602;SDS011;1311;47.966;7.958;2023-05-07T06:09:44;4.27;;;3.40;;
2602;SDS011;1311;47.966;7.958;2023-05-07T06:12:11;3.53;;;3.23;;
2602;SDS011;1311;47.966;7.958;2023-05-07T06:14:39;3.60;;;3.27;;
2602;SDS011;1311;47.966;7.958;2023-05-07T06:17:06;5.47;;;3.43;;
2602;SDS011;1311;47.966;7.958;2023-05-07T06:19:33;4.90;;;4.00;;
2602;SDS011;1311;47.966;7.958;2023-05-07T06:22:00;3.57;;;3.27;;
2602;SDS011;1311;47.966;7.958;2023-05-07T06:24:27;4.30;;;3.87;;
2602;SDS011;1311;47.966;7.958;2023-05-07T06:26:54;4.33;;;3.93;;
2602;SDS011;1311;47.966;7.958;2023-05-07T06:29:23;3.70;;;3.40;;
2602;SDS011;1311;47.966;7.958;2023-05-07T06:31:52;7.07;;;4.53;;
2602;SDS011;1311;47.966;7.958;2023-05-07T06:34:19;5.77;;;3.43;;
2602;SDS011;1311;47.966;7.958;2023-05-07T06:36:45;3.67;;;3.37;;
2602;SDS011;1311;47.966;7.958;2023-05-07T06:39:12;4.03;;;3.63;;
2602;SDS011;1311;47.966;7.958;2023-05-07T06:41:39;3.50;;;3.20;;
2602;SDS011;1311;47.966;7.958;2023-05-07T06:44:06;2.90;;;2.70;;
2602;SDS011;1311;47.966;7.958;2023-05-07T06:46:32;4.37;;;3.70;;
2602;SDS011;1311;47.966;7.958;2023-05-07T06:49:01;3.40;;;3.10;;
2602;SDS011;1311;47.966;7.958;2023-05-07T06:51:27;2.70;;;2.50;;
2602;SDS011;1311;47.966;7.958;2023-05-07T06:53:55;3.50;;;3.20;;
2602;SDS011;1311;47.966;7.958;2023-05-07T06:56:21;3.00;;;2.80;;
2602;SDS011;1311;47.966;7.958;2023-05-07T06:58:49;3.40;;;3.20;;
2602;SDS011;1311;47.966;7.958;2023-05-07T07:01:16;3.07;;;2.77;;
2602;SDS011;1311;47.966;7.958;2023-05-07T07:03:42;3.40;;;3.00;;
2602;SDS011;1311;47.966;7.958;2023-05-07T07:06:11;4.17;;;3.10;;
2602;SDS011;1311;47.966;7.958;2023-05-07T07:08:38;3.27;;;2.97;;
2602;SDS011;1311;47.966;7.958;2023-05-07T07:11:04;3.30;;;3.00;;
2602;SDS011;1311;47.966;7.958;2023-05-07T07:13:31;3.53;;;3.23;;
2602;SDS011;1311;47.966;7.958;2023-05-07T07:15:58;3.50;;;3.20;;
2602;SDS011;1311;47.966;7.958;2023-05-07T07:18:26;3.53;;;3.23;;
2602;SDS011;1311;47.966;7.958;2023-05-07T07:20:53;3.70;;;3.40;;
2602;SDS011;1311;47.966;7.958;2023-05-07T07:23:21;3.60;;;3.30;;
2602;SDS011;1311;47.966;7.958;2023-05-07T07:25:48;4.10;;;3.47;;
2602;SDS011;1311;47.966;7.958;2023-05-07T07:28:15;4.10;;;3.77;;
2602;SDS011;1311;47.966;7.958;2023-05-07T07:30:46;3.67;;;3.37;;
2602;SDS011;1311;47.966;7.958;2023-05-07T07:33:14;4.10;;;3.70;;
2602;SDS011;1311;47.966;7.958;2023-05-07T07:35:41;4.33;;;3.93;;
2602;SDS011;1311;47.966;7.958;2023-05-07T07:38:08;4.47;;;3.80;;
2602;SDS011;1311;47.966;7.958;2023-05-07T07:40:36;8.13;;;4.10;;
2602;SDS011;1311;47.966;7.958;2023-05-07T07:43:03;4.10;;;3.60;;
2602;SDS011;1311;47.966;7.958;2023-05-07T07:45:31;4.20;;;3.80;;
2602;SDS011;1311;47.966;7.958;2023-05-07T07:47:57;4.37;;;3.30;;
2602;SDS011;1311;47.966;7.958;2023-05-07T07:50:24;3.23;;;3.00;;
2602;SDS011;1311;47.966;7.958;2023-05-07T07:52:51;3.27;;;3.00;;
2602;SDS011;1311;47.966;7.958;2023-05-07T07:55:19;4.67;;;3.90;;
2602;SDS011;1311;47.966;7.958;2023-05-07T07:57:49;3.93;;;3.63;;
2602;SDS011;1311;47.966;7.958;2023-05-07T08:00:16;4.90;;;3.43;;
2602;SDS011;1311;47.966;7.958;2023-05-07T08:02:43;3.97;;;3.67;;
2602;SDS011;1311;47.966;7.958;2023-05-07T08:05:10;4.30;;;3.90;;
2602;SDS011;1311;47.966;7.958;2023-05-07T08:07:36;6.00;;;3.93;;
2602;SDS011;1311;47.966;7.958;2023-05-07T08:10:03;4.93;;;3.67;;
2602;SDS011;1311;47.966;7.958;2023-05-07T08:12:31;5.20;;;3.50;;
2602;SDS011;1311;47.966;7.958;2023-05-07T08:14:59;3.93;;;3.37;;
2602;SDS011;1311;47.966;7.958;2023-05-07T08:17:25;4.10;;;3.50;;
2602;SDS011;1311;47.966;7.958;2023-05-07T08:19:52;3.73;;;3.40;;
2602;SDS011;1311;47.966;7.958;2023-05-07T08:22:19;3.57;;;3.27;;
2602;SDS011;1311;47.966;7.958;2023-05-07T08:24:47;3.57;;;3.27;;
2602;SDS011;1311;47.966;7.958;2023-05-07T08:27:13;4.17;;;3.77;;
2602;SDS011;1311;47.966;7.958;2023-05-07T08:29:40;3.53;;;3.23;;
2602;SDS011;1311;47.966;7.958;2023-05-07T08:32:08;3.57;;;3.20;;
2602;SDS011;1311;47.966;7.958;2023-05-07T08:34:35;3.17;;;2.97;;
2602;SDS011;1311;47.966;7.958;2023-05-07T08:37:02;2.90;;;2.70;;
2602;SDS011;1311;47.966;7.958;2023-05-07T08:39:29;2.90;;;2.70;;
2602;SDS011;1311;47.966;7.958;2023-05-07T08:41:56;4.80;;;3.77;;
2602;SDS011;1311;47.966;7.958;2023-05-07T08:44:27;3.80;;;3.30;;
2602;SDS011;1311;47.966;7.958;2023-05-07T08:46:56;3.80;;;3.40;;
2602;SDS011;1311;47.966;7.958;2023-05-07T08:49:25;4.30;;;3.27;;
2602;SDS011;1311;47.966;7.958;2023-05-07T08:51:53;3.60;;;3.30;;
2602;SDS011;1311;47.966;7.958;2023-05-07T08:54:20;3.80;;;3.50;;
2602;SDS011;1311;47.966;7.958;2023-05-07T08:56:48;5.07;;;3.50;;
2602;SDS011;1311;47.966;7.958;2023-05-07T08:59:14;4.37;;;3.77;;
2602;SDS011;1311;47.966;7.958;2023-05-07T09:01:41;4.70;;;3.57;;
2602;SDS011;1311;47.966;7.958;2023-05-07T09:04:08;6.40;;;3.60;;
2602;SDS011;1311;47.966;7.958;2023-05-07T09:06:36;3.80;;;3.30;;
2602;SDS011;1311;47.966;7.958;2023-05-07T09:09:06;5.60;;;4.13;;
2602;SDS011;1311;47.966;7.958;2023-05-07T09:11:33;4.20;;;3.70;;
2602;SDS011;1311;47.966;7.958;2023-05-07T09:14:00;4.23;;;3.93;;
2602;SDS011;1311;47.966;7.958;2023-05-07T09:16:28;4.43;;;4.03;;
2602;SDS011;1311;47.966;7.958;2023-05-07T09:18:57;5.10;;;3.80;;
2602;SDS011;1311;47.966;7.958;2023-05-07T09:21:24;4.63;;;4.07;;
2602;SDS011;1311;47.966;7.958;2023-05-07T09:23:54;4.50;;;4.10;;
2602;SDS011;1311;47.966;7.958;2023-05-07T09:26:21;4.50;;;4.20;;
2602;SDS011;1311;47.966;7.958;2023-05-07T09:28:48;4.50;;;3.93;;
2602;SDS011;1311;47.966;7.958;2023-05-07T09:31:15;4.87;;;4.40;;
2602;SDS011;1311;47.966;7.958;2023-05-07T09:33:42;4.60;;;4.20;;
2602;SDS011;1311;47.966;7.958;2023-05-07T09:36:09;4.83;;;4.43;;
2602;SDS011;1311;47.966;7.958;2023-05-07T09:38:36;4.50;;;4.10;;
2602;SDS011;1311;47.966;7.958;2023-05-07T09:41:06;4.37;;;3.83;;
2602;SDS011;1311;47.966;7.958;2023-05-07T09:43:34;4.60;;;4.20;;
2602;SDS011;1311;47.966;7.958;2023-05-07T09:46:11;6.17;;;4.80;;
2602;SDS011;1311;47.966;7.958;2023-05-07T09:48:40;4.83;;;4.33;;
2602;SDS011;1311;47.966;7.958;2023-05-07T09:51:18;7.33;;;5.30;;
2602;SDS011;1311;47.966;7.958;2023-05-07T09:53:51;7.00;;;5.60;;
2602;SDS011;1311;47.966;7.958;2023-05-07T09:56:20;5.90;;;5.30;;
2602;SDS011;1311;47.966;7.958;2023-05-07T09:58:48;5.27;;;4.87;;
2602;SDS011;1311;47.966;7.958;2023-05-07T10:01:16;5.90;;;3.83;;
2602;SDS011;1311;47.966;7.958;2023-05-07T10:03:44;5.50;;;5.00;;
2602;SDS011;1311;47.966;7.958;2023-05-07T10:06:12;5.00;;;4.60;;
2602;SDS011;1311;47.966;7.958;2023-05-07T10:08:40;4.00;;;3.60;;
2602;SDS011;1311;47.966;7.958;2023-05-07T10:11:09;5.50;;;4.30;;
2602;SDS011;1311;47.966;7.958;2023-05-07T10:13:37;5.07;;;4.63;;
2602;SDS011;1311;47.966;7.958;2023-05-07T10:16:04;4.77;;;4.20;;
2602;SDS011;1311;47.966;7.958;2023-05-07T10:18:32;3.00;;;1.93;;
2602;SDS011;1311;47.966;7.958;2023-05-07T10:21:01;4.53;;;1.80;;
2602;SDS011;1311;47.966;7.958;2023-05-07T10:23:33;2.70;;;1.87;;
2602;SDS011;1311;47.966;7.958;2023-05-07T10:26:04;4.17;;;1.90;;
2602;SDS011;1311;47.966;7.958;2023-05-07T10:28:34;1.87;;;1.77;;
2602;SDS011;1311;47.966;7.958;2023-05-07T10:31:11;2.40;;;1.80;;
2602;SDS011;1311;47.966;7.958;2023-05-07T10:33:49;2.80;;;1.90;;
2602;SDS011;1311;47.966;7.958;2023-05-07T10:36:19;6.40;;;2.20;;
2602;SDS011;1311;47.966;7.958;2023-05-07T10:38:46;4.23;;;2.63;;
2602;SDS011;1311;47.966;7.958;2023-05-07T10:41:13;3.67;;;2.80;;
2602;SDS011;1311;47.966;7.958;2023-05-07T10:43:43;3.20;;;2.83;;
2602;SDS011;1311;47.966;7.958;2023-05-07T10:46:13;9.10;;;4.00;;
2602;SDS011;1311;47.966;7.958;2023-05-07T10:51:36;3.80;;;3.50;;
2602;SDS011;1311;47.966;7.958;2023-05-07T10:54:19;4.70;;;3.10;;
2602;SDS011;1311;47.966;7.958;2023-05-07T10:56:49;5.47;;;3.30;;
2602;SDS011;1311;47.966;7.958;2023-05-07T11:02:07;5.50;;;3.27;;
2602;SDS011;1311;47.966;7.958;2023-05-07T11:04:34;6.43;;;3.40;;
2602;SDS011;1311;47.966;7.958;2023-05-07T11:10:01;5.47;;;4.70;;
2602;SDS011;1311;47.966;7.958;2023-05-07T11:12:52;5.63;;;4.97;;
2602;SDS011;1311;47.966;7.958;2023-05-07T11:15:37;5.90;;;5.40;;
2602;SDS011;1311;47.966;7.958;2023-05-07T11:18:06;6.20;;;5.57;;
2602;SDS011;1311;47.966;7.958;2023-05-07T11:20:46;6.00;;;5.40;;
2602;SDS011;1311;47.966;7.958;2023-05-07T11:26:46;4.30;;;3.40;;
2602;SDS011;1311;47.966;7.958;2023-05-07T11:29:14;4.93;;;4.20;;
2602;SDS011;1311;47.966;7.958;2023-05-07T11:31:43;5.70;;;5.10;;
2602;SDS011;1311;47.966;7.958;2023-05-07T11:34:14;4.73;;;3.87;;
2602;SDS011;1311;47.966;7.958;2023-05-07T11:36:46;4.00;;;3.63;;
2602;SDS011;1311;47.966;7.958;2023-05-07T11:39:24;4.00;;;3.60;;
2602;SDS011;1311;47.966;7.958;2023-05-07T11:41:51;4.83;;;4.30;;
2602;SDS011;1311;47.966;7.958;2023-05-07T11:44:18;5.00;;;4.60;;
2602;SDS011;1311;47.966;7.958;2023-05-07T11:46:46;3.97;;;3.57;;
2602;SDS011;1311;47.966;7.958;2023-05-07T11:49:14;5.67;;;4.10;;
2602;SDS011;1311;47.966;7.958;2023-05-07T11:51:41;4.57;;;4.17;;
2602;SDS011;1311;47.966;7.958;2023-05-07T11:54:09;5.57;;;4.40;;
2602;SDS011;1311;47.966;7.958;2023-05-07T11:56:38;4.77;;;4.20;;
2602;SDS011;1311;47.966;7.958;2023-05-07T11:59:05;5.10;;;4.70;;
2602;SDS011;1311;47.966;7.958;2023-05-07T12:01:32;6.70;;;4.50;;
2602;SDS011;1311;47.966;7.958;2023-05-07T12:04:03;4.30;;;4.00;;
2602;SDS011;1311;47.966;7.958;2023-05-07T12:06:31;3.83;;;3.37;;
2602;SDS011;1311;47.966;7.958;2023-05-07T12:09:02;4.30;;;4.00;;
2602;SDS011;1311;47.966;7.958;2023-05-07T12:11:29;6.53;;;4.20;;
2602;SDS011;1311;47.966;7.958;2023-05-07T12:13:55;3.60;;;3.30;;
2602;SDS011;1311;47.966;7.958;2023-05-07T12:16:22;4.03;;;3.57;;
2602;SDS011;1311;47.966;7.958;2023-05-07T12:18:50;3.80;;;3.50;;
2602;SDS011;1311;47.966;7.958;2023-05-07T12:21:19;3.67;;;3.30;;
2602;SDS011;1311;47.966;7.958;2023-05-07T12:23:46;3.90;;;3.60;;
2602;SDS011;1311;47.966;7.958;2023-05-07T12:26:13;3.57;;;3.27;;
2602;SDS011;1311;47.966;7.958;2023-05-07T12:28:40;3.40;;;3.10;;
2602;SDS011;1311;47.966;7.958;2023-05-07T12:31:06;3.47;;;3.17;;
2602;SDS011;1311;47.966;7.958;2023-05-07T12:33:34;4.30;;;3.90;;
2602;SDS011;1311;47.966;7.958;2023-05-07T12:36:05;9.00;;;3.50;;
2602;SDS011;1311;47.966;7.958;2023-05-07T12:38:38;4.20;;;3.90;;
2602;SDS011;1311;47.966;7.958;2023-05-07T12:41:06;4.00;;;3.60;;
2602;SDS011;1311;47.966;7.958;2023-05-07T12:43:34;4.50;;;3.50;;
2602;SDS011;1311;47.966;7.958;2023-05-07T12:46:01;3.60;;;3.30;;
2602;SDS011;1311;47.966;7.958;2023-05-07T12:48:30;4.73;;;4.33;;
2602;SDS011;1311;47.966;7.958;2023-05-07T12:50:58;3.60;;;3.30;;
2602;SDS011;1311;47.966;7.958;2023-05-07T12:53:26;3.80;;;3.50;;
2602;SDS011;1311;47.966;7.958;2023-05-07T12:55:56;3.77;;;3.43;;
2602;SDS011;1311;47.966;7.958;2023-05-07T12:58:24;3.97;;;3.67;;
2602;SDS011;1311;47.966;7.958;2023-05-07T13:00:52;6.00;;;4.27;;
2602;SDS011;1311;47.966;7.958;2023-05-07T13:03:23;3.73;;;3.43;;
2602;SDS011;1311;47.966;7.958;2023-05-07T13:05:51;5.27;;;4.87;;
2602;SDS011;1311;47.966;7.958;2023-05-07T13:08:29;5.40;;;4.90;;
2602;SDS011;1311;47.966;7.958;2023-05-07T13:10:59;5.10;;;4.70;;
2602;SDS011;1311;47.966;7.958;2023-05-07T13:13:28;5.53;;;4.00;;
2602;SDS011;1311;47.966;7.958;2023-05-07T13:15:55;5.50;;;5.00;;
2602;SDS011;1311;47.966;7.958;2023-05-07T13:18:22;8.93;;;5.33;;
2602;SDS011;1311;47.966;7.958;2023-05-07T13:20:50;5.23;;;4.67;;
2602;SDS011;1311;47.966;7.958;2023-05-07T13:23:17;5.97;;;5.40;;
2602;SDS011;1311;47.966;7.958;2023-05-07T13:25:44;5.10;;;4.67;;
2602;SDS011;1311;47.966;7.958;2023-05-07T13:28:12;5.80;;;5.20;;
2602;SDS011;1311;47.966;7.958;2023-05-07T13:30:39;5.47;;;4.97;;
2602;SDS011;1311;47.966;7.958;2023-05-07T13:33:06;5.20;;;4.80;;
2602;SDS011;1311;47.966;7.958;2023-05-07T13:35:33;5.30;;;4.33;;
2602;SDS011;1311;47.966;7.958;2023-05-07T13:38:02;4.10;;;3.70;;
2602;SDS011;1311;47.966;7.958;2023-05-07T13:40:29;4.93;;;4.50;;
2602;SDS011;1311;47.966;7.958;2023-05-07T13:42:56;5.00;;;4.60;;
2602;SDS011;1311;47.966;7.958;2023-05-07T13:45:26;5.40;;;5.00;;
2602;SDS011;1311;47.966;7.958;2023-05-07T13:47:54;6.00;;;5.40;;
2602;SDS011;1311;47.966;7.958;2023-05-07T13:50:21;8.00;;;5.80;;
2602;SDS011;1311;47.966;7.958;2023-05-07T13:52:48;6.00;;;5.50;;
2602;SDS011;1311;47.966;7.958;2023-05-07T13:55:16;6.00;;;5.40;;
2602;SDS011;1311;47.966;7.958;2023-05-07T13:57:43;7.27;;;6.20;;
2602;SDS011;1311;47.966;7.958;2023-05-07T14:00:11;6.10;;;5.50;;
2602;SDS011;1311;47.966;7.958;2023-05-07T14:02:39;5.50;;;5.00;;
2602;SDS011;1311;47.966;7.958;2023-05-07T14:05:06;4.40;;;4.00;;
2602;SDS011;1311;47.966;7.958;2023-05-07T14:07:34;6.63;;;3.83;;
2602;SDS011;1311;47.966;7.958;2023-05-07T14:10:01;3.50;;;3.20;;
2602;SDS011;1311;47.966;7.958;2023-05-07T14:12:28;3.10;;;2.80;;
2602;SDS011;1311;47.966;7.958;2023-05-07T14:14:55;3.20;;;2.90;;
2602;SDS011;1311;47.966;7.958;2023-05-07T14:17:21;4.00;;;2.60;;
2602;SDS011;1311;47.966;7.958;2023-05-07T14:19:51;5.57;;;2.43;;
2602;SDS011;1311;47.966;7.958;2023-05-07T14:22:19;12.33;;;2.67;;
2602;SDS011;1311;47.966;7.958;2023-05-07T14:24:46;2.73;;;2.53;;
2602;SDS011;1311;47.966;7.958;2023-05-07T14:27:13;3.10;;;2.90;;
2602;SDS011;1311;47.966;7.958;2023-05-07T14:29:40;3.30;;;3.00;;
2602;SDS011;1311;47.966;7.958;2023-05-07T14:32:07;4.80;;;3.37;;
2602;SDS011;1311;47.966;7.958;2023-05-07T14:34:34;3.23;;;2.93;;
2602;SDS011;1311;47.966;7.958;2023-05-07T14:37:02;3.60;;;3.30;;
2602;SDS011;1311;47.966;7.958;2023-05-07T14:39:29;3.10;;;2.90;;
2602;SDS011;1311;47.966;7.958;2023-05-07T14:41:56;3.33;;;3.03;;
2602;SDS011;1311;47.966;7.958;2023-05-07T14:44:23;3.80;;;3.50;;
2602;SDS011;1311;47.966;7.958;2023-05-07T14:46:50;5.00;;;4.50;;
2602;SDS011;1311;47.966;7.958;2023-05-07T14:49:17;4.13;;;3.83;;
2602;SDS011;1311;47.966;7.958;2023-05-07T14:51:43;4.33;;;3.47;;
2602;SDS011;1311;47.966;7.958;2023-05-07T14:54:12;4.60;;;4.20;;
2602;SDS011;1311;47.966;7.958;2023-05-07T14:56:40;4.87;;;4.37;;
2602;SDS011;1311;47.966;7.958;2023-05-07T14:59:07;3.43;;;3.13;;
2602;SDS011;1311;47.966;7.958;2023-05-07T15:01:35;5.10;;;4.00;;
2602;SDS011;1311;47.966;7.958;2023-05-07T15:04:02;4.90;;;4.07;;
2602;SDS011;1311;47.966;7.958;2023-05-07T15:06:29;4.00;;;3.70;;
2602;SDS011;1311;47.966;7.958;2023-05-07T15:08:56;3.90;;;3.60;;
2602;SDS011;1311;47.966;7.958;2023-05-07T15:11:25;3.40;;;3.10;;
2602;SDS011;1311;47.966;7.958;2023-05-07T15:13:51;4.00;;;3.40;;
2602;SDS011;1311;47.966;7.958;2023-05-07T15:16:18;4.47;;;4.07;;
2602;SDS011;1311;47.966;7.958;2023-05-07T15:18:45;5.57;;;3.50;;
2602;SDS011;1311;47.966;7.958;2023-05-07T15:21:12;6.10;;;4.17;;
2602;SDS011;1311;47.966;7.958;2023-05-07T15:23:39;4.13;;;3.77;;
2602;SDS011;1311;47.966;7.958;2023-05-07T15:26:07;3.83;;;3.30;;
2602;SDS011;1311;47.966;7.958;2023-05-07T15:28:35;4.47;;;4.07;;
2602;SDS011;1311;47.966;7.958;2023-05-07T15:31:03;5.17;;;3.93;;